Od poczatku lipca 2020, dane na stronę są wysyłane z nowej stacji Davis Pro2 Plus. Dzięki tej stacji możemy sprawdzać natężenie promieniowania słonecznego i promieniowania UV. Końcem grudnia dotarł czujnik jakości powietrza Davis AirLink. Od niedzieli 20.12.2020, można sprawdzać w czasie rzeczywistym jakość powietrza w Mościcach. Dane wyświetlane są w środkowej częsci strony głównej.
   Brak ostrzeżeń pogodowych   -   Brak ostrzeżeń pogodowych

Raporty Pogodowe z Lotnisk

 

EPKK - Krakow/Balice, Poland
Odległość od stacji: Zd 81km
Aktualizacja: 21/01/2021 13:00
Częściowe zachmurzenie
Częściowe zachmurzenie
 Wiatr z varies
Wiatr: varies 4 km/h
Temperatura: 4°C
Punkt Rosy: -1°C
Wilgotność Względna: 70%
Ciśnienie Względne: 1006 hPa
Chmury: Częściowe zachmurzenie
Widoczność: 7 km
2021/01/21 12:00 EPKK 211200Z VRB02KT 7000 NSC 04/M01 Q1006 R25/19//95
EPRZ - Rzeszow/Jasionka, Poland
Odległość od stacji: Ws 81km
Aktualizacja: 21/01/2021 13:00
Bezchmurnie
Bezchmurnie
 Wiatr z PdPdZd
Wiatr: PdPdZd 44 km/h
Temperatura: 6°C
Temperatura Odczuwalna: 1°C
Punkt Rosy: 0°C
Wilgotność Względna: 66%
Ciśnienie Względne: 1008 hPa
Podsumowanie: Bezchmurnie
Widoczność: większa niż 10 km
2021/01/21 12:00 EPRZ 211200Z 20024KT CAVOK 06/00 Q1008
 
EPKT - Katowice/Pyrzowice, Poland
Odległość od stacji: ZdPnZd 141km
Aktualizacja: 21/01/2021 13:00
Bezchmurnie
Bezchmurnie
 Wiatr z PdZd
Wiatr: PdZd 24 km/h
Temperatura: 6°C
Temperatura Odczuwalna: 2°C
Punkt Rosy: 1°C
Wilgotność Względna: 71%
Ciśnienie Względne: 1005 hPa
Podsumowanie: Bezchmurnie
Widoczność: większa niż 10 km
2021/01/21 12:00 EPKT 211200Z 22013KT CAVOK 06/01 Q1005
EPWA - Warsaw/Okecie, Poland
Odległość od stacji: Pn 240km
Aktualizacja: 21/01/2021 13:00
Bezchmurnie
Bezchmurnie
 Wiatr z Pd
Wiatr: Pd 11 km/h
Temperatura: 6°C
Temperatura Odczuwalna: 4°C
Punkt Rosy: 0°C
Wilgotność Względna: 66%
Ciśnienie Względne: 1005 hPa
Podsumowanie: Bezchmurnie
Widoczność: większa niż 10 km
2021/01/21 12:00 EPWA 211200Z 17006KT 150V210 CAVOK 06/00 Q1005 R11/2///95 NOSIG
 
EPLL - Lodz/Lublinek, Poland
Odległość od stacji: PnPnZd 218km
Aktualizacja: 21/01/2021 13:00
Bezchmurnie
Bezchmurnie
 Wiatr z PdPdZd
Wiatr: PdPdZd 11 km/h
Temperatura: 6°C
Temperatura Odczuwalna: 4°C
Punkt Rosy: 1°C
Wilgotność Względna: 71%
Ciśnienie Względne: 1004 hPa
Podsumowanie: Bezchmurnie
Widoczność: większa niż 10 km
2021/01/21 12:00 EPLL 211200Z 20006KT 150V270 CAVOK 06/01 Q1004
EPWR - Wroclaw/Strachowice, Poland
Odległość od stacji: ZdPnZd 311km
Aktualizacja: 21/01/2021 13:00
Bezchmurnie
Bezchmurnie
 Wiatr z PdPdWs
Wiatr: PdPdWs 19 km/h
Temperatura: 7°C
Temperatura Odczuwalna: 4°C
Punkt Rosy: 2°C
Wilgotność Względna: 71%
Ciśnienie Względne: 1003 hPa
Podsumowanie: Bezchmurnie
Widoczność: większa niż 10 km
2021/01/21 12:00 EPWR 211200Z 15010KT CAVOK 07/02 Q1003
 
EPGD - Gdansk/Rebiechowo, Poland
Odległość od stacji: PnZd 553km
Aktualizacja: 21/01/2021 13:00
Bezchmurnie
Bezchmurnie
 Wiatr z PdPdZd
Wiatr: PdPdZd 24 km/h
Temperatura: 7°C
Temperatura Odczuwalna: 3°C
Punkt Rosy: -1°C
Wilgotność Względna: 57%
Ciśnienie Względne: 997 hPa
Podsumowanie: Bezchmurnie
Widoczność: większa niż 10 km
2021/01/21 12:00 EPGD 211200Z 20013KT CAVOK 07/M01 Q0997 R11/290095
EPSC - Szczecin/Goleniow, Poland
Odległość od stacji: ZdPnZd 635km
Aktualizacja: 21/01/2021 13:00
Bezchmurnie
Bezchmurnie
 Wiatr z Pd
Wiatr: Pd 20 km/h
Temperatura: 11°C
Punkt Rosy: 1°C
Wilgotność Względna: 50%
Ciśnienie Względne: 994 hPa
Podsumowanie: Bezchmurnie
Widoczność: większa niż 10 km
2021/01/21 12:00 EPSC 211200Z 18011KT 150V210 CAVOK 11/01 Q0994